Station info - map view · info · telemetry · weather · raw · status · beacons · messages · bulletins · browse · moving · my account
Callsign, ship name or locator: Clear       
It is possible to search using wildcards (*?) after a prefix. Example: OH*
APRS station W0WFO-9 - show graphs
Map loading...
Comment: 145.310MHz
Mic-E message: Special
Location: 39°47.92' N 105°03.97' W - locator DM79LT21BQ - show map - static map
1.2 miles East bearing 104° from Arvada, Jefferson County, Colorado, United States [?]
5.8 miles Northeast bearing 61° from Applewood, Jefferson County, Colorado, United States
6.0 miles Northwest bearing 314° from Denver, Denver County, Colorado, United States
67.9 miles North bearing 349° from Colorado Springs, El Paso County, Colorado, United States
Last position: 2019-05-19 04:36:56 EDT (7h39m ago)
2019-05-19 02:36:56 MDT local time at Arvada, United States [?]
Altitude: 5282 ft
Course: 19°
Device: Yaesu: FTM-400DR (rig)
Last path: W0WFO-9>3Y4WYR via WIDE1-1,WIDE2-1,qAR,AC0XW-1 (good)
Positions stored: 1609
Packet rate: 125 seconds between packets on average during 6141 seconds.
Stations near current position of W0WFO-9 - show more
callsign distance last heard - EDT      callsign distance last heard - EDT
W0JAW8-90.5 miles 23°2019-05-14 12:08:56 W0JAW-90.5 miles 24°2019-05-19 08:22:05
KC2YXS1.5 miles 146°2019-05-06 19:33:52 WB7TNE-51.6 miles 5°2019-05-17 11:41:15
AC0XW-91.8 miles 13°2019-05-18 02:26:01 AC0XW-11.8 miles 12°2019-05-19 11:49:58
K0NSD-91.8 miles 22°2019-05-18 17:30:37 DW65401.9 miles 321°2019-05-19 12:15:10
W0GV-92.2 miles 355°2019-05-05 13:05:09 WD0ESY-42.2 miles 356°2019-04-24 18:43:57
WD0ESY-72.2 miles 356°2019-04-19 17:10:14 WD0ESY-N2.2 miles 356°2019-05-19 01:37:17
WD0ESY-32.2 miles 356°2019-05-19 12:08:31 WD0ESY-22.2 miles 356°2019-04-25 07:50:01
N6ZO2.3 miles 144°2019-05-19 12:14:25 K0LAI-92.4 miles 55°2019-05-19 11:23:04
EW03872.5 miles 220°2019-05-19 12:16:17 KE0VH-22.5 miles 235°2019-05-18 19:18:15
KD0RHV-92.5 miles 135°2019-05-09 17:29:57 bentley31412.7 miles 26°2019-05-03 02:14:01
Stations which heard W0WFO-9 directly on radio –
callsign pkts first heard - EDT last heard longest (tx => rx) longest at - EDT
BLUEMT 91 2019-05-17 16:26:06 2019-05-19 00:00:06 DN50TI > DN50KI 39.7 miles 269° 2019-05-17 16:26:06
WERNER 36 2019-05-17 15:00:52 2019-05-19 03:16:55 DM69XP > DN60PK 67.1 miles 328° 2019-05-19 03:16:55
CEDAR 65 2019-05-17 15:03:38 2019-05-19 01:44:52 DN60OI > DN60EN 47.3 miles 289° 2019-05-19 01:44:52
BAXTER 27 2019-05-17 17:09:30 2019-05-18 01:28:26 DN50GL > DM59MO 66.5 miles 155° 2019-05-17 18:05:53
VAILMT 7 2019-05-19 02:09:24 2019-05-19 02:43:49 DN60SG > DM69TO 45.3 miles 172° 2019-05-19 02:09:24
SWANMT 6 2019-05-19 02:51:16 2019-05-19 03:24:36 DM69UV > DM69XO 26.1 miles 146° 2019-05-19 02:51:16
MAGMTN 11 2019-05-17 16:44:18 2019-05-19 01:42:20 DN60OI > DN60AE 61.4 miles 259° 2019-05-19 01:42:20
QUAIL 1 2019-05-19 02:59:38 2019-05-19 02:59:38 DM69VT > DM69TA 55.6 miles 190° 2019-05-19 02:59:38
BVILLE 7 2019-05-19 02:18:51 2019-05-19 03:55:30 DN60SC > DM79CQ 46.5 miles 131° 2019-05-19 02:18:51
KF6RAL-7 7 2019-05-17 16:58:11 2019-05-18 23:19:49 DN50LF > DN40OI 94.2 miles 275° 2019-05-17 16:58:11
ERIDGE 22 2019-05-19 01:54:51 2019-05-19 03:22:58 DN60QJ > DM69SU 39.7 miles 165° 2019-05-19 01:54:51
AC0XW-1 1 2019-05-19 04:36:56 2019-05-19 04:36:56 DM79LT > DM79LT 1.8 miles 12° 2019-05-19 04:36:56
PANDO 1 2019-05-19 01:58:07 2019-05-19 01:58:07 DN60RJ > DM69TJ 68.3 miles 170° 2019-05-19 01:58:07
W0ARP 1 2019-05-19 04:09:27 2019-05-19 04:09:27 DM79KR > DM79QL 32.6 miles 121° 2019-05-19 04:09:27
TABNSH 2 2019-05-19 01:55:54 2019-05-19 02:25:13 DN60QJ > DN70CA 48.6 miles 122° 2019-05-19 01:55:54
WALDEN 3 2019-05-19 01:25:14 2019-05-19 02:24:42 DN60NM > DN60XL 43.5 miles 93° 2019-05-19 01:25:14
K0NTS-5 5 2019-05-19 03:46:11 2019-05-19 04:19:22 DM79LT > DM79GR 20.5 miles 254° 2019-05-19 04:19:22
W0ARP-3 7 2019-05-19 03:54:13 2019-05-19 04:12:28 DM79GR > DM79QL 45.7 miles 113° 2019-05-19 03:54:13
N6BA-10 1 2019-05-19 03:56:57 2019-05-19 03:56:57 DM79HR > DM79OI 40.6 miles 128° 2019-05-19 03:56:57
WA0GEH-10 2 2019-05-19 03:58:04 2019-05-19 04:06:49 DM79HR > DM79MM 25.2 miles 119° 2019-05-19 03:58:04
KC0D-4 2 2019-05-19 04:13:16 2019-05-19 04:17:32 DM79KS > DM79OO 22.9 miles 126° 2019-05-19 04:13:16
K0PRW-10 1 2019-05-19 04:11:15 2019-05-19 04:11:15 DM79KS > DM79JW 13.6 miles 355° 2019-05-19 04:11:15
N0SZ-30 3 2019-05-19 03:52:03 2019-05-19 03:58:35 DM79HR > DM79HU 10.3 miles 352° 2019-05-19 03:58:35

Only position packets which were originated by the station are shown here. The range statistics show some extra long hops, because some digipeaters do not correctly add themselves to the digipeater path. Please check the raw packets.
About this site
This page shows real-time information collected from the Automatic Position Reporting System Internet network (APRS-IS). APRS is used by amateur (ham) radio operators to transmit real-time position information, weather data, telemetry and messages over the radio. A vehicle equipped with a GPS receiver, a VHF transmitter or HF transceiver and a small computer device called a tracker transmits it's location, speed and course in a small data packet, which is then received by a nearby iGate receiving site which forwards the packet on the Internet. Systems connected to the Internet can send information on the APRS-IS without a radio transmitter, or collect and display information transmitted anywhere in the world.
FAQ · Blog · Discussion group · Linking to aprs.fi · AIS sites · Service status · Database statistics · Advertising on aprs.fi · Technical details · API · Change log · Planned changes · Credits and thanks · Terms Of Service · iPhone/iPad APRS